createdAt,value
2019-03-25T00:03:35.591Z,7.90
2019-03-25T00:08:38.143Z,8.77
2019-03-25T00:13:40.865Z,7.77
2019-03-25T00:18:44.436Z,7.60
2019-03-25T00:23:47.215Z,8.27
2019-03-25T00:28:49.703Z,7.40
2019-03-25T00:33:52.107Z,7.83
2019-03-25T00:38:54.459Z,7.77
2019-03-25T00:43:57.255Z,8.57
2019-03-25T00:49:00.644Z,7.80
2019-03-25T00:54:03.128Z,8.13
2019-03-25T00:59:05.510Z,8.63
2019-03-25T01:04:08.037Z,8.47
2019-03-25T01:09:10.511Z,8.20
2019-03-25T01:14:13.628Z,8.73
2019-03-25T01:19:16.093Z,8.73
2019-03-25T01:24:18.495Z,8.40
2019-03-25T01:29:21.359Z,8.10
2019-03-25T01:34:24.748Z,8.00
2019-03-25T01:39:27.114Z,8.23
2019-03-25T01:44:29.571Z,7.87
2019-03-25T01:49:31.980Z,9.33
2019-03-25T01:54:34.337Z,8.83
2019-03-25T01:59:37.006Z,8.27
2019-03-25T02:04:39.352Z,8.97
2019-03-25T02:09:41.815Z,7.83
2019-03-25T02:14:44.326Z,7.77
2019-03-25T02:20:26.576Z,7.57
2019-03-25T02:25:27.553Z,8.03
2019-03-25T02:30:30.028Z,7.33
2019-03-25T02:35:32.562Z,6.80
2019-03-25T02:40:34.917Z,7.43
2019-03-25T02:45:37.369Z,7.23
2019-03-25T02:50:39.773Z,7.53
2019-03-25T02:55:42.659Z,7.30
2019-03-25T03:00:45.261Z,7.20
2019-03-25T03:05:47.646Z,7.00
2019-03-25T03:10:50.017Z,7.07
2019-03-25T03:15:52.438Z,7.17
2019-03-25T03:20:54.856Z,6.97
2019-03-25T03:25:58.342Z,6.80
2019-03-25T03:31:01.042Z,6.80
2019-03-25T03:36:04.752Z,6.30
2019-03-25T03:41:07.212Z,6.73
2019-03-25T03:46:09.706Z,6.77
2019-03-25T03:51:13.293Z,7.07
2019-03-25T03:56:16.390Z,7.13
2019-03-25T04:01:18.784Z,6.87
2019-03-25T04:06:21.208Z,7.03
2019-03-25T04:11:23.791Z,6.73
2019-03-25T04:16:26.225Z,6.80
2019-03-25T04:21:28.708Z,6.67
2019-03-25T04:26:31.276Z,6.70
2019-03-25T04:31:33.641Z,6.63
2019-03-25T04:36:37.018Z,6.07
2019-03-25T04:41:39.400Z,6.37
2019-03-25T04:46:41.846Z,6.10
2019-03-25T04:51:45.586Z,5.73
2019-03-25T04:56:47.956Z,5.80
2019-03-25T05:01:50.525Z,5.50
2019-03-25T05:06:52.915Z,4.80
2019-03-25T05:11:55.485Z,5.50
2019-03-25T05:16:58.136Z,5.20
2019-03-25T05:22:00.507Z,5.30
2019-03-25T05:27:02.890Z,5.80
2019-03-25T05:32:05.283Z,5.17
2019-03-25T05:37:07.792Z,6.23
2019-03-25T05:42:10.303Z,6.10
2019-03-25T05:47:12.949Z,6.43
2019-03-25T05:52:15.320Z,7.60
2019-03-25T05:57:17.949Z,7.17
2019-03-25T06:02:20.443Z,6.70
2019-03-25T06:07:22.817Z,7.80
2019-03-25T06:12:25.203Z,6.83
2019-03-25T06:17:27.829Z,6.43
2019-03-25T06:22:30.393Z,6.90
2019-03-25T06:27:32.973Z,6.67
2019-03-25T06:32:35.439Z,7.30
2019-03-25T06:37:37.826Z,8.17
2019-03-25T06:42:40.201Z,8.33
2019-03-25T06:47:42.659Z,8.00
2019-03-25T06:52:45.137Z,8.10
2019-03-25T06:57:47.617Z,7.37
2019-03-25T07:02:50.164Z,8.67
2019-03-25T07:07:52.742Z,8.20
2019-03-25T07:12:55.354Z,8.73
2019-03-25T07:17:57.868Z,8.37
2019-03-25T07:23:00.236Z,9.63
2019-03-25T07:28:02.749Z,9.30
2019-03-25T07:33:05.226Z,8.57
2019-03-25T07:38:07.597Z,7.87
2019-03-25T07:43:09.998Z,8.37
2019-03-25T07:48:12.465Z,7.20
2019-03-25T07:53:14.829Z,8.80
2019-03-25T07:58:17.249Z,7.40
2019-03-25T08:03:19.627Z,8.23
2019-03-25T08:08:22.172Z,7.20
2019-03-25T08:13:24.778Z,6.90
2019-03-25T08:18:27.221Z,5.97
2019-03-25T08:23:29.589Z,5.10
2019-03-25T08:28:32.133Z,4.47
2019-03-25T08:33:34.537Z,3.53
2019-03-25T08:38:36.965Z,2.70
2019-03-25T08:43:39.475Z,2.60
2019-03-25T08:48:42.028Z,2.53
2019-03-25T08:53:44.382Z,3.27
2019-03-25T08:58:46.800Z,2.43
2019-03-25T09:03:49.184Z,2.73
2019-03-25T09:08:52.767Z,2.70
2019-03-25T09:13:55.149Z,2.40
2019-03-25T09:18:57.773Z,2.10
2019-03-25T09:24:00.314Z,2.23
2019-03-25T09:29:03.982Z,3.13
2019-03-25T09:34:06.545Z,2.40
2019-03-25T09:39:09.127Z,1.97
2019-03-25T09:44:11.511Z,2.20
2019-03-25T09:49:14.062Z,2.20
2019-03-25T09:54:16.439Z,2.30
2019-03-25T09:59:18.844Z,2.53
2019-03-25T10:04:21.257Z,1.80
2019-03-25T10:09:23.678Z,1.87
2019-03-25T10:14:26.053Z,1.50
2019-03-25T10:19:28.463Z,1.80
2019-03-25T10:24:30.868Z,1.80
2019-03-25T10:29:33.236Z,1.67
2019-03-25T10:34:35.608Z,1.80
2019-03-25T10:39:37.993Z,1.23
2019-03-25T10:44:40.372Z,1.80
2019-03-25T10:49:42.786Z,1.83
2019-03-25T10:54:45.293Z,1.70
2019-03-25T10:59:47.780Z,2.40
2019-03-25T11:04:50.254Z,2.53
2019-03-25T11:09:53.761Z,2.27
2019-03-25T11:14:56.176Z,1.70
2019-03-25T11:19:58.555Z,2.10
2019-03-25T11:25:00.942Z,2.30
2019-03-25T11:30:05.813Z,1.73
2019-03-25T11:35:09.226Z,1.90
2019-03-25T11:40:13.249Z,1.73
2019-03-25T11:45:16.081Z,1.33
2019-03-25T11:50:18.585Z,1.33
2019-03-25T11:55:23.063Z,1.60
2019-03-25T12:00:26.004Z,2.70
2019-03-25T12:05:28.381Z,2.57
2019-03-25T12:10:30.984Z,2.07
2019-03-25T12:15:33.619Z,2.80
2019-03-25T12:20:36.229Z,1.90
2019-03-25T12:25:38.593Z,1.73
2019-03-25T12:30:41.286Z,1.60
2019-03-25T12:35:43.674Z,2.13
2019-03-25T12:40:46.339Z,2.20
2019-03-25T12:45:48.770Z,1.57
2019-03-25T12:50:51.165Z,1.50
2019-03-25T12:55:53.624Z,1.40
2019-03-25T13:00:56.125Z,1.20
2019-03-25T13:05:58.523Z,1.40
2019-03-25T13:11:00.977Z,1.60
2019-03-25T13:16:03.547Z,1.40
2019-03-25T13:21:05.937Z,1.30
2019-03-25T13:26:08.293Z,1.23
2019-03-25T13:31:10.793Z,1.40
2019-03-25T13:36:13.342Z,1.30
2019-03-25T13:41:15.954Z,1.70
2019-03-25T13:46:18.373Z,1.80
2019-03-25T13:51:20.754Z,1.77
2019-03-25T13:56:23.124Z,1.80
2019-03-25T14:01:25.665Z,2.00
2019-03-25T14:06:28.053Z,2.47
2019-03-25T14:11:30.420Z,1.80
2019-03-25T14:16:32.835Z,1.70
2019-03-25T14:21:35.220Z,1.70
2019-03-25T14:26:37.696Z,1.80
2019-03-25T14:31:40.535Z,2.20
2019-03-25T14:36:44.056Z,2.40
2019-03-25T14:41:46.528Z,2.60
2019-03-25T14:46:48.957Z,3.47
2019-03-25T14:51:51.415Z,2.43
2019-03-25T14:56:53.793Z,3.07
2019-03-25T15:01:56.486Z,3.07
2019-03-25T15:06:59.043Z,3.30
2019-03-25T15:12:01.433Z,1.80
2019-03-25T15:17:03.843Z,1.00
2019-03-25T15:22:06.229Z,1.10
2019-03-25T15:27:08.618Z,1.83
2019-03-25T15:32:12.269Z,1.70
2019-03-25T15:37:14.972Z,1.27
2019-03-25T15:42:17.523Z,1.13
2019-03-25T15:47:20.322Z,1.20
2019-03-25T15:52:22.877Z,1.10
2019-03-25T15:57:25.257Z,1.00
2019-03-25T16:02:27.643Z,1.20
2019-03-25T16:07:33.122Z,1.20
2019-03-25T16:12:38.317Z,1.20
2019-03-25T16:17:43.102Z,1.30
2019-03-25T16:22:46.492Z,1.20
2019-03-25T16:27:49.077Z,1.37
2019-03-25T16:32:51.779Z,1.63
2019-03-25T16:37:54.160Z,1.37
2019-03-25T16:42:56.519Z,1.63
2019-03-25T16:47:59.092Z,1.80
2019-03-25T16:53:01.689Z,1.50
2019-03-25T16:58:07.070Z,1.67
2019-03-25T17:03:09.560Z,1.67
2019-03-25T17:08:11.927Z,1.60
2019-03-25T17:13:14.528Z,2.43
2019-03-25T17:18:16.940Z,1.93
2019-03-25T17:23:19.295Z,2.00
2019-03-25T17:28:21.847Z,2.17
2019-03-25T17:33:24.254Z,2.40
2019-03-25T17:38:26.650Z,2.40
2019-03-25T17:43:47.297Z,2.00
2019-03-25T17:49:08.846Z,1.90
2019-03-25T17:54:29.987Z,2.80
2019-03-25T17:59:51.089Z,2.37
2019-03-25T18:05:12.692Z,2.93
2019-03-25T18:10:33.948Z,3.07
2019-03-25T18:15:54.604Z,2.90
2019-03-25T18:21:15.845Z,3.00
2019-03-25T18:26:36.908Z,3.10
2019-03-25T18:31:57.857Z,3.47
2019-03-25T18:37:19.189Z,2.90
2019-03-25T18:42:40.459Z,3.77
2019-03-25T18:48:01.860Z,3.20
2019-03-25T18:53:23.058Z,3.60
2019-03-25T18:58:44.216Z,4.13
2019-03-25T19:04:05.208Z,3.63
2019-03-25T19:09:26.101Z,4.00
2019-03-25T19:14:47.098Z,3.43
2019-03-25T19:20:08.296Z,3.83
2019-03-25T19:25:29.619Z,5.00
2019-03-25T19:30:50.709Z,3.30
2019-03-25T19:36:11.626Z,3.50
2019-03-25T19:41:32.942Z,4.27
2019-03-25T19:46:54.046Z,4.57
2019-03-25T19:52:15.377Z,4.20
2019-03-25T19:57:36.359Z,4.00
2019-03-25T20:02:57.446Z,3.40
2019-03-25T20:08:18.594Z,2.80
2019-03-25T20:13:39.861Z,2.80
2019-03-25T20:19:01.201Z,2.70
2019-03-25T20:24:21.938Z,3.17
2019-03-25T20:29:43.296Z,2.37
2019-03-25T20:35:04.956Z,2.70
2019-03-25T20:40:26.100Z,2.90
2019-03-25T20:52:16.811Z,2.80
2019-03-25T20:57:40.515Z,2.77
2019-03-25T21:03:01.144Z,3.13
2019-03-25T21:08:22.417Z,3.10
2019-03-25T21:13:43.935Z,3.00
2019-03-25T21:19:05.057Z,2.83
2019-03-25T21:24:26.206Z,3.30
2019-03-25T21:29:47.398Z,3.20
2019-03-25T21:35:08.782Z,3.30
2019-03-25T21:40:30.133Z,3.87
2019-03-25T21:45:52.380Z,4.17
2019-03-25T21:51:13.795Z,3.93
2019-03-25T21:56:34.951Z,4.07
2019-03-25T22:01:56.574Z,4.17
2019-03-25T22:07:17.213Z,4.77
2019-03-25T22:12:39.167Z,4.57
2019-03-25T22:18:00.821Z,5.17
2019-03-25T22:23:21.872Z,5.03
2019-03-25T22:28:43.204Z,5.10
2019-03-25T22:34:04.165Z,5.47
2019-03-25T22:39:26.026Z,5.63
2019-03-25T22:44:47.060Z,5.70
2019-03-25T22:50:17.092Z,5.67
2019-03-25T22:55:38.148Z,5.97
2019-03-25T23:01:00.917Z,5.43
2019-03-25T23:06:22.014Z,5.47
2019-03-25T23:11:43.291Z,5.70
2019-03-25T23:17:03.872Z,6.07
2019-03-25T23:22:25.172Z,5.47
2019-03-25T23:27:46.236Z,5.23
2019-03-25T23:33:06.977Z,5.67
2019-03-25T23:38:28.712Z,5.63
2019-03-25T23:43:49.685Z,5.27
2019-03-25T23:49:10.906Z,5.90
2019-03-25T23:54:31.804Z,5.80
2019-03-25T23:59:53.261Z,6.20
